Timber Lake, Illinois
Current Conditions -  °F | °C
As of 12:52 PM on Tuesday 21 Oct 2014 (Local Time) from KPWK Reporting Station
Overcast Overcast  
Wind Chill: 53°   Ceiling: 3700
Heat Index: 53°   Visibility: 10mi
Dew Point: 41°   Wind: 9mph
Humidity: 64%   Direction: 10°N
Pressure: 30.19"   Gusts: 22mph
Location:  42.1512°N, 88.1636°W
Report Text: KPWK 211752Z 01008G19KT 10SM SCT027 BKN037 OVC047 12/05 A3019 RMK AO2 SLP223 T01170050 10122 20083 51007
Loading
Personal Weather Stations






























Interactive Weather Map
Tropical Storm Tracking
New forecast layout! Learn more

10-Day Weather Forecast

Advertisements
Track Severe Weather on mobile